Petersburg, AK

8:44 AM AKDT on August 23, 2014 (GMT -0800)
Johnson Petersburg | Change Station
CLOSE
Current Station
Airport
Location: Petersburg,
Elevation: 0 ft
Nearby Weather Stations

Elev 0 ft 56.82 °N, 132.97 °W | Updated 28 minutes ago

Mostly Cloudy
Mostly Cloudy
54 °F
Feels Like 54 °F
N
4
Wind Variable Wind from NE

Today
High -- | Low -- °F
--% Chance of Precip.
Yesterday
High -- | Low -- °F
Precip. -- in
5:37 AM 8:12 PM
Waning Crescent, 3% visible
Pressure 30.13 in
Visibility 10.0 miles
Clouds Few 300 ft
Scattered Clouds 1800 ft
Mostly Cloudy 7000 ft
Dew Point 52 °F
Humidity 94%
Rainfall 0.03 in
Snow Depth Not available.
UV 1 out of 12
Pollen Not available.
Air Quality Not available.
Flu Activity Not available.
METAR PAPG 231616Z 05003KT 10SM FEW003 SCT018 BKN070 12/11 A3013 RMK AO1 WEA: -RA

More Conditions Fewer Conditions

Pressure 30.13 in
Visibility 10.0 miles
Clouds Few 300 ft
Scattered Clouds 1800 ft
Mostly Cloudy 7000 ft
Dew Point 52 °F
Humidity 94%
Rainfall 0.03 in
Snow Depth Not available.
UV 1 out of 12
Pollen Not available.
Air Quality Not available.
Flu Activity Not available.
METAR PAPG 231616Z 05003KT 10SM FEW003 SCT018 BKN070 12/11 A3013 RMK AO1 WEA: -RA

More Conditions Fewer Conditions

10-Day Weather Forecast

Almanac

Astronomy

Aug. 23, 2014 Rise Set
Actual Time 5:37 AM AKDT 8:12 PM AKDT
Civil Twilight 4:55 AM AKDT 8:54 PM AKDT
Nautical Twilight 3:59 AM AKDT 9:49 PM AKDT
Astronomical Twilight 2:46 AM AKDT 11:00 PM AKDT
Moon 3:53 AM AKDT 7:02 PM AKDT
Length of Visible Light 15h 59m
Length of Day
14h 34m
Tomorrow will be 4m 37s shorter.
Waning Crescent, 3% of the Moon is Illuminated
Today
Waning Crescent
Aug 25
New
Sep 2
First Quarter
Sep 8
Full
Sep 15
Last Quarter

Today's Extremes

State Highs State Lows

Community

WunderPhotos

Upload Photos

1,746,526 photos uploaded!

WunderBlogs® & News

By Dr. Jeff Masters
Director of Meteorology, Weather Underground
By Kari Strenfel
Meteorologist, Weather Underground
By Christopher C. Burt
Weather Historian, Weather Underground
August 23, 2014
August 23, 2014
August 23, 2014

Nearby

Snow Depth

Station Depth Elevation
Long Lake 0 in 820 ft
Upper Tsaina River 0 in 1750 ft
Moraine 0 in 2100 ft
Grandview 3 in 1100 ft
Grouse Creek Divide 0 in 700 ft

Earthquake Activity

City Distance Mag. Time & Date
No recent earthquake activity has been reported nearby.
Minimum magnitude displayed is 2.5.

Coastal Water Temperatures

Place Temperature
No Stations Reporting

Nearby Weather Stations